sensor_id;sensor_type;location;lat;lon;timestamp;pressure;altitude;pressure_sealevel;temperature;humidity
39487;BME280;25173;50.430;18.926;2023-02-12T00:02:28;99460.09;;;7.26;78.68
39487;BME280;25173;50.430;18.926;2023-02-12T00:05:29;99469.03;;;7.26;78.70
39487;BME280;25173;50.430;18.926;2023-02-12T00:08:30;99469.63;;;7.28;78.56
39487;BME280;25173;50.430;18.926;2023-02-12T00:11:31;99469.03;;;7.26;78.47
39487;BME280;25173;50.430;18.926;2023-02-12T00:14:31;99472.63;;;7.20;78.70
39487;BME280;25173;50.430;18.926;2023-02-12T00:17:32;99460.91;;;7.26;78.78
39487;BME280;25173;50.430;18.926;2023-02-12T00:20:33;99468.75;;;7.34;78.53
39487;BME280;25173;50.430;18.926;2023-02-12T00:23:34;99475.69;;;7.30;78.50
39487;BME280;25173;50.430;18.926;2023-02-12T00:26:35;99484.91;;;7.23;78.71
39487;BME280;25173;50.430;18.926;2023-02-12T00:29:36;99491.38;;;7.22;78.56
39487;BME280;25173;50.430;18.926;2023-02-12T00:32:39;99490.13;;;7.24;78.32
39487;BME280;25173;50.430;18.926;2023-02-12T00:35:40;99490.94;;;7.25;78.71
39487;BME280;25173;50.430;18.926;2023-02-12T00:38:41;99486.09;;;7.33;78.68
39487;BME280;25173;50.430;18.926;2023-02-12T00:41:43;99482.09;;;7.36;78.42
39487;BME280;25173;50.430;18.926;2023-02-12T00:44:44;99490.16;;;7.43;78.13
39487;BME280;25173;50.430;18.926;2023-02-12T00:47:44;99480.41;;;7.35;78.21
39487;BME280;25173;50.430;18.926;2023-02-12T00:50:47;99487.72;;;7.34;78.23
39487;BME280;25173;50.430;18.926;2023-02-12T00:53:47;99482.69;;;7.38;78.26
39487;BME280;25173;50.430;18.926;2023-02-12T00:56:48;99497.09;;;7.38;78.29
39487;BME280;25173;50.430;18.926;2023-02-12T00:59:48;99498.97;;;7.38;78.07
39487;BME280;25173;50.430;18.926;2023-02-12T01:02:50;99495.44;;;7.37;78.20
39487;BME280;25173;50.430;18.926;2023-02-12T01:05:52;99500.16;;;7.42;78.21
39487;BME280;25173;50.430;18.926;2023-02-12T01:08:54;99502.25;;;7.47;78.15
39487;BME280;25173;50.430;18.926;2023-02-12T01:11:55;99501.78;;;7.50;78.06
39487;BME280;25173;50.430;18.926;2023-02-12T01:14:55;99497.59;;;7.54;78.43
39487;BME280;25173;50.430;18.926;2023-02-12T01:17:56;99505.25;;;7.57;78.06
39487;BME280;25173;50.430;18.926;2023-02-12T01:20:57;99514.00;;;7.59;77.74
39487;BME280;25173;50.430;18.926;2023-02-12T01:23:58;99523.03;;;7.53;77.76
39487;BME280;25173;50.430;18.926;2023-02-12T01:26:59;99519.75;;;7.44;77.82
39487;BME280;25173;50.430;18.926;2023-02-12T01:30:02;99523.72;;;7.41;78.08
39487;BME280;25173;50.430;18.926;2023-02-12T01:33:02;99513.97;;;7.40;78.28
39487;BME280;25173;50.430;18.926;2023-02-12T01:36:03;99529.41;;;7.40;78.15
39487;BME280;25173;50.430;18.926;2023-02-12T01:39:04;99531.50;;;7.38;78.20
39487;BME280;25173;50.430;18.926;2023-02-12T01:42:05;99537.34;;;7.35;78.21
39487;BME280;25173;50.430;18.926;2023-02-12T01:48:15;99543.25;;;7.25;78.27
39487;BME280;25173;50.430;18.926;2023-02-12T01:51:19;99536.75;;;7.26;78.35
39487;BME280;25173;50.430;18.926;2023-02-12T01:54:21;99548.84;;;7.30;78.26
39487;BME280;25173;50.430;18.926;2023-02-12T01:57:27;99557.41;;;7.27;78.17
39487;BME280;25173;50.430;18.926;2023-02-12T02:00:30;99550.78;;;7.23;78.36
39487;BME280;25173;50.430;18.926;2023-02-12T02:03:35;99555.19;;;7.18;78.63
39487;BME280;25173;50.430;18.926;2023-02-12T02:09:58;99553.31;;;7.18;78.38
39487;BME280;25173;50.430;18.926;2023-02-12T02:13:02;99556.28;;;7.10;78.51
39487;BME280;25173;50.430;18.926;2023-02-12T02:16:24;99564.16;;;7.12;78.69
39487;BME280;25173;50.430;18.926;2023-02-12T02:33:29;99569.16;;;7.15;78.38
39487;BME280;25173;50.430;18.926;2023-02-12T02:36:40;99579.16;;;7.14;78.37
39487;BME280;25173;50.430;18.926;2023-02-12T02:39:48;99588.53;;;7.18;78.14
39487;BME280;25173;50.430;18.926;2023-02-12T02:46:05;99597.09;;;7.15;78.02
39487;BME280;25173;50.430;18.926;2023-02-12T02:49:10;99592.50;;;7.16;78.08
39487;BME280;25173;50.430;18.926;2023-02-12T02:52:16;99593.34;;;7.16;77.77
39487;BME280;25173;50.430;18.926;2023-02-12T02:55:19;99600.22;;;7.12;77.72
39487;BME280;25173;50.430;18.926;2023-02-12T02:58:27;99609.78;;;7.15;77.66
39487;BME280;25173;50.430;18.926;2023-02-12T03:01:39;99613.56;;;7.14;77.61
39487;BME280;25173;50.430;18.926;2023-02-12T03:04:50;99616.91;;;7.09;77.46
39487;BME280;25173;50.430;18.926;2023-02-12T03:08:11;99624.19;;;7.15;77.60
39487;BME280;25173;50.430;18.926;2023-02-12T03:11:26;99624.56;;;7.19;77.32
39487;BME280;25173;50.430;18.926;2023-02-12T03:14:31;99631.22;;;7.23;77.25
39487;BME280;25173;50.430;18.926;2023-02-12T03:17:38;99636.22;;;7.26;77.37
39487;BME280;25173;50.430;18.926;2023-02-12T03:20:44;99645.41;;;7.25;77.06
39487;BME280;25173;50.430;18.926;2023-02-12T03:23:54;99664.53;;;7.30;77.10
39487;BME280;25173;50.430;18.926;2023-02-12T03:27:55;99664.53;;;7.30;76.93
39487;BME280;25173;50.430;18.926;2023-02-12T03:30:40;99662.03;;;7.28;76.84
39487;BME280;25173;50.430;18.926;2023-02-12T03:37:09;99686.19;;;7.36;76.82
39487;BME280;25173;50.430;18.926;2023-02-12T03:40:21;99697.81;;;7.44;76.67
39487;BME280;25173;50.430;18.926;2023-02-12T03:43:32;99692.56;;;7.49;76.46
39487;BME280;25173;50.430;18.926;2023-02-12T03:46:43;99688.63;;;7.51;76.45
39487;BME280;25173;50.430;18.926;2023-02-12T03:50:09;99694.25;;;7.50;76.07
39487;BME280;25173;50.430;18.926;2023-02-12T03:53:10;99697.81;;;7.44;76.10
39487;BME280;25173;50.430;18.926;2023-02-12T04:00:08;99710.75;;;7.41;76.19
39487;BME280;25173;50.430;18.926;2023-02-12T04:03:14;99715.94;;;7.50;76.28
39487;BME280;25173;50.430;18.926;2023-02-12T04:06:25;99730.75;;;7.54;75.87
39487;BME280;25173;50.430;18.926;2023-02-12T04:09:26;99732.19;;;7.50;75.93
39487;BME280;25173;50.430;18.926;2023-02-12T04:12:39;99737.81;;;7.55;75.75
39487;BME280;25173;50.430;18.926;2023-02-12T04:15:56;99738.66;;;7.55;75.55
39487;BME280;25173;50.430;18.926;2023-02-12T04:19:01;99735.31;;;7.53;75.52
39487;BME280;25173;50.430;18.926;2023-02-12T04:32:27;99748.72;;;7.35;75.18
39487;BME280;25173;50.430;18.926;2023-02-12T04:38:42;99763.53;;;7.39;75.38
39487;BME280;25173;50.430;18.926;2023-02-12T04:41:44;99761.41;;;7.41;75.43
39487;BME280;25173;50.430;18.926;2023-02-12T04:44:45;99766.63;;;7.43;75.20
39487;BME280;25173;50.430;18.926;2023-02-12T04:47:45;99768.72;;;7.47;75.39
39487;BME280;25173;50.430;18.926;2023-02-12T04:50:46;99768.91;;;7.52;75.34
39487;BME280;25173;50.430;18.926;2023-02-12T04:53:47;99792.47;;;7.52;75.19
39487;BME280;25173;50.430;18.926;2023-02-12T04:56:49;99784.34;;;7.52;75.14
39487;BME280;25173;50.430;18.926;2023-02-12T04:59:49;99793.09;;;7.54;74.91
39487;BME280;25173;50.430;18.926;2023-02-12T05:02:50;99795.59;;;7.49;74.98
39487;BME280;25173;50.430;18.926;2023-02-12T05:05:50;99800.59;;;7.52;74.91
39487;BME280;25173;50.430;18.926;2023-02-12T05:08:52;99801.00;;;7.55;74.72
39487;BME280;25173;50.430;18.926;2023-02-12T05:11:53;99808.09;;;7.50;74.62
39487;BME280;25173;50.430;18.926;2023-02-12T05:14:53;99811.69;;;7.44;74.88
39487;BME280;25173;50.430;18.926;2023-02-12T05:17:54;99815.25;;;7.37;74.87
39487;BME280;25173;50.430;18.926;2023-02-12T05:20:59;99826.28;;;7.43;74.87
39487;BME280;25173;50.430;18.926;2023-02-12T05:24:01;99827.72;;;7.45;74.88
39487;BME280;25173;50.430;18.926;2023-02-12T05:27:03;99828.38;;;7.47;74.63
39487;BME280;25173;50.430;18.926;2023-02-12T05:30:04;99830.03;;;7.35;74.33
39487;BME280;25173;50.430;18.926;2023-02-12T05:33:05;99832.59;;;7.23;74.09
39487;BME280;25173;50.430;18.926;2023-02-12T05:36:08;99843.44;;;7.10;74.37
39487;BME280;25173;50.430;18.926;2023-02-12T05:39:10;99854.91;;;6.99;74.17
39487;BME280;25173;50.430;18.926;2023-02-12T05:42:10;99852.41;;;6.78;74.06
39487;BME280;25173;50.430;18.926;2023-02-12T05:45:11;99854.91;;;6.66;74.19
39487;BME280;25173;50.430;18.926;2023-02-12T05:48:11;99863.00;;;6.59;74.41
39487;BME280;25173;50.430;18.926;2023-02-12T05:51:15;99865.50;;;6.61;74.41
39487;BME280;25173;50.430;18.926;2023-02-12T05:54:15;99872.00;;;6.73;74.68
39487;BME280;25173;50.430;18.926;2023-02-12T05:57:16;99891.38;;;6.90;74.53
39487;BME280;25173;50.430;18.926;2023-02-12T06:00:17;99892.22;;;7.10;74.56
39487;BME280;25173;50.430;18.926;2023-02-12T06:03:18;99895.13;;;7.22;73.71
39487;BME280;25173;50.430;18.926;2023-02-12T06:06:18;99902.00;;;7.24;73.20
39487;BME280;25173;50.430;18.926;2023-02-12T06:09:19;99913.25;;;7.28;72.87
39487;BME280;25173;50.430;18.926;2023-02-12T06:12:20;99913.88;;;7.23;72.37
39487;BME280;25173;50.430;18.926;2023-02-12T06:15:20;99937.44;;;7.16;72.21
39487;BME280;25173;50.430;18.926;2023-02-12T06:18:21;99943.06;;;7.15;72.25
39487;BME280;25173;50.430;18.926;2023-02-12T06:21:24;99941.38;;;7.20;72.35
39487;BME280;25173;50.430;18.926;2023-02-12T06:24:24;99946.78;;;7.27;71.84
39487;BME280;25173;50.430;18.926;2023-02-12T06:27:25;99955.75;;;7.27;71.88
39487;BME280;25173;50.430;18.926;2023-02-12T06:30:26;99958.91;;;7.31;71.82
39487;BME280;25173;50.430;18.926;2023-02-12T06:33:26;99955.16;;;7.25;71.08
39487;BME280;25173;50.430;18.926;2023-02-12T06:36:27;99965.97;;;7.12;70.99
39487;BME280;25173;50.430;18.926;2023-02-12T06:39:28;99964.34;;;7.11;70.85
39487;BME280;25173;50.430;18.926;2023-02-12T06:42:28;99966.41;;;7.03;70.57
39487;BME280;25173;50.430;18.926;2023-02-12T06:45:29;99969.72;;;6.91;70.17
39487;BME280;25173;50.430;18.926;2023-02-12T06:48:30;99979.28;;;6.81;70.29
39487;BME280;25173;50.430;18.926;2023-02-12T06:51:31;99984.69;;;6.74;70.07
39487;BME280;25173;50.430;18.926;2023-02-12T06:54:31;99972.97;;;6.60;69.47
39487;BME280;25173;50.430;18.926;2023-02-12T06:57:32;99979.81;;;6.43;69.35
39487;BME280;25173;50.430;18.926;2023-02-12T07:00:32;99976.22;;;6.30;69.34
39487;BME280;25173;50.430;18.926;2023-02-12T07:03:33;99984.47;;;6.15;69.45
39487;BME280;25173;50.430;18.926;2023-02-12T07:06:34;99984.41;;;6.08;69.42
39487;BME280;25173;50.430;18.926;2023-02-12T07:09:35;99986.06;;;6.03;69.20
39487;BME280;25173;50.430;18.926;2023-02-12T07:12:35;99983.78;;;6.00;69.45
39487;BME280;25173;50.430;18.926;2023-02-12T07:15:38;99989.75;;;5.95;69.40
39487;BME280;25173;50.430;18.926;2023-02-12T07:18:39;99992.47;;;5.95;69.36
39487;BME280;25173;50.430;18.926;2023-02-12T07:21:39;100000.38;;;5.97;69.39
39487;BME280;25173;50.430;18.926;2023-02-12T07:24:40;100009.34;;;5.97;69.47
39487;BME280;25173;50.430;18.926;2023-02-12T07:27:41;100003.47;;;5.94;69.40
39487;BME280;25173;50.430;18.926;2023-02-12T07:30:41;100006.44;;;5.99;69.26
39487;BME280;25173;50.430;18.926;2023-02-12T07:33:42;100007.03;;;6.01;69.23
39487;BME280;25173;50.430;18.926;2023-02-12T07:36:43;100016.88;;;6.08;69.28
39487;BME280;25173;50.430;18.926;2023-02-12T07:39:44;100021.94;;;6.18;68.97
39487;BME280;25173;50.430;18.926;2023-02-12T07:42:45;100031.97;;;6.31;69.18
39487;BME280;25173;50.430;18.926;2023-02-12T07:45:51;100033.28;;;6.41;68.75
39487;BME280;25173;50.430;18.926;2023-02-12T07:48:52;100042.50;;;6.53;68.58
39487;BME280;25173;50.430;18.926;2023-02-12T07:51:53;100034.63;;;6.58;68.18
39487;BME280;25173;50.430;18.926;2023-02-12T07:54:56;100038.78;;;6.68;68.06
39487;BME280;25173;50.430;18.926;2023-02-12T07:57:56;100038.59;;;6.69;67.42
39487;BME280;25173;50.430;18.926;2023-02-12T08:00:57;100043.00;;;6.77;67.43
39487;BME280;25173;50.430;18.926;2023-02-12T08:04:00;100040.31;;;6.90;67.85
39487;BME280;25173;50.430;18.926;2023-02-12T08:07:01;100054.34;;;7.13;67.33
39487;BME280;25173;50.430;18.926;2023-02-12T08:10:03;100060.22;;;7.17;66.49
39487;BME280;25173;50.430;18.926;2023-02-12T08:13:03;100070.22;;;7.16;66.75
39487;BME280;25173;50.430;18.926;2023-02-12T08:16:10;100074.81;;;7.29;66.91
39487;BME280;25173;50.430;18.926;2023-02-12T08:19:12;100075.25;;;7.46;66.92
39487;BME280;25173;50.430;18.926;2023-02-12T08:22:12;100072.75;;;7.64;66.52
39487;BME280;25173;50.430;18.926;2023-02-12T08:25:13;100074.44;;;7.65;65.08
39487;BME280;25173;50.430;18.926;2023-02-12T08:28:14;100077.94;;;7.26;63.64
39487;BME280;25173;50.430;18.926;2023-02-12T08:31:18;100079.78;;;7.12;64.76
39487;BME280;25173;50.430;18.926;2023-02-12T08:34:20;100091.00;;;6.96;64.53
39487;BME280;25173;50.430;18.926;2023-02-12T08:37:21;100094.31;;;6.91;64.12
39487;BME280;25173;50.430;18.926;2023-02-12T08:40:21;100101.13;;;6.74;64.22
39487;BME280;25173;50.430;18.926;2023-02-12T08:43:22;100100.97;;;6.48;63.80
39487;BME280;25173;50.430;18.926;2023-02-12T08:46:25;100102.56;;;6.29;64.09
39487;BME280;25173;50.430;18.926;2023-02-12T08:49:28;100101.03;;;6.20;64.54
39487;BME280;25173;50.430;18.926;2023-02-12T08:52:28;100100.53;;;6.10;64.42
39487;BME280;25173;50.430;18.926;2023-02-12T08:55:29;100099.66;;;6.03;65.11
39487;BME280;25173;50.430;18.926;2023-02-12T08:58:31;100104.75;;;6.19;65.48
39487;BME280;25173;50.430;18.926;2023-02-12T09:01:34;100102.63;;;6.42;65.83
39487;BME280;25173;50.430;18.926;2023-02-12T09:04:37;100106.09;;;6.71;65.26
39487;BME280;25173;50.430;18.926;2023-02-12T09:07:39;100110.06;;;6.75;64.18
39487;BME280;25173;50.430;18.926;2023-02-12T09:10:41;100121.31;;;6.72;64.33
39487;BME280;25173;50.430;18.926;2023-02-12T09:13:44;100120.13;;;6.81;64.52
39487;BME280;25173;50.430;18.926;2023-02-12T09:16:45;100118.31;;;7.01;64.41
39487;BME280;25173;50.430;18.926;2023-02-12T09:19:45;100121.94;;;7.28;64.18
39487;BME280;25173;50.430;18.926;2023-02-12T09:22:46;100120.91;;;7.49;63.24
39487;BME280;25173;50.430;18.926;2023-02-12T09:25:46;100124.50;;;7.62;62.80
39487;BME280;25173;50.430;18.926;2023-02-12T09:28:48;100132.03;;;7.80;62.94
39487;BME280;25173;50.430;18.926;2023-02-12T09:31:49;100131.22;;;7.99;62.58
39487;BME280;25173;50.430;18.926;2023-02-12T09:34:50;100132.44;;;8.16;62.14
39487;BME280;25173;50.430;18.926;2023-02-12T09:37:51;100133.28;;;8.37;61.93
39487;BME280;25173;50.430;18.926;2023-02-12T09:47:35;100149.72;;;9.26;60.49
39487;BME280;25173;50.430;18.926;2023-02-12T09:50:52;100151.50;;;9.01;58.62
39487;BME280;25173;50.430;18.926;2023-02-12T09:54:02;100151.56;;;8.87;59.26
39487;BME280;25173;50.430;18.926;2023-02-12T09:57:06;100152.41;;;8.75;59.37
39487;BME280;25173;50.430;18.926;2023-02-12T10:00:25;100148.31;;;8.19;57.60
39487;BME280;25173;50.430;18.926;2023-02-12T10:03:30;100151.63;;;7.75;58.52
39487;BME280;25173;50.430;18.926;2023-02-12T10:06:47;100159.28;;;7.32;58.13
39487;BME280;25173;50.430;18.926;2023-02-12T10:13:35;100154.59;;;7.13;60.21
39487;BME280;25173;50.430;18.926;2023-02-12T10:17:32;100159.00;;;7.14;59.07
39487;BME280;25173;50.430;18.926;2023-02-12T10:21:01;100156.13;;;7.35;60.26
39487;BME280;25173;50.430;18.926;2023-02-12T10:27:56;100150.09;;;7.33;58.78
39487;BME280;25173;50.430;18.926;2023-02-12T10:31:03;100153.09;;;7.04;59.19
39487;BME280;25173;50.430;18.926;2023-02-12T10:34:20;100161.69;;;7.08;59.55
39487;BME280;25173;50.430;18.926;2023-02-12T10:37:39;100159.03;;;7.34;60.34
39487;BME280;25173;50.430;18.926;2023-02-12T10:40:44;100168.06;;;7.48;59.67
39487;BME280;25173;50.430;18.926;2023-02-12T10:43:44;100156.16;;;7.49;59.51
39487;BME280;25173;50.430;18.926;2023-02-12T10:46:45;100161.41;;;7.57;59.27
39487;BME280;25173;50.430;18.926;2023-02-12T10:49:55;100170.81;;;7.61;59.34
39487;BME280;25173;50.430;18.926;2023-02-12T10:52:57;100158.28;;;7.47;59.35
39487;BME280;25173;50.430;18.926;2023-02-12T10:56:20;100162.59;;;7.41;58.72
39487;BME280;25173;50.430;18.926;2023-02-12T10:59:24;100156.97;;;7.29;59.16
39487;BME280;25173;50.430;18.926;2023-02-12T11:02:26;100170.97;;;7.33;59.74
39487;BME280;25173;50.430;18.926;2023-02-12T11:05:29;100171.16;;;7.38;59.36
39487;BME280;25173;50.430;18.926;2023-02-12T11:08:35;100159.94;;;7.48;60.00
39487;BME280;25173;50.430;18.926;2023-02-12T11:11:37;100165.75;;;7.38;59.15
39487;BME280;25173;50.430;18.926;2023-02-12T11:14:47;100160.72;;;7.28;59.03
39487;BME280;25173;50.430;18.926;2023-02-12T11:21:05;100155.19;;;6.95;59.73
39487;BME280;25173;50.430;18.926;2023-02-12T11:24:28;100156.63;;;6.98;60.33
39487;BME280;25173;50.430;18.926;2023-02-12T11:27:30;100154.72;;;6.92;60.02
39487;BME280;25173;50.430;18.926;2023-02-12T11:30:31;100154.94;;;6.97;60.75
39487;BME280;25173;50.430;18.926;2023-02-12T11:33:33;100155.00;;;7.04;60.20
39487;BME280;25173;50.430;18.926;2023-02-12T11:36:54;100157.09;;;7.08;60.35
39487;BME280;25173;50.430;18.926;2023-02-12T11:39:55;100159.88;;;7.34;60.74
39487;BME280;25173;50.430;18.926;2023-02-12T11:43:06;100155.78;;;7.58;60.25
39487;BME280;25173;50.430;18.926;2023-02-12T11:46:08;100163.91;;;7.65;59.92
39487;BME280;25173;50.430;18.926;2023-02-12T11:49:19;100159.16;;;7.80;59.92
39487;BME280;25173;50.430;18.926;2023-02-12T11:52:27;100162.69;;;7.94;59.06
39487;BME280;25173;50.430;18.926;2023-02-12T11:55:31;100159.78;;;7.95;59.21
39487;BME280;25173;50.430;18.926;2023-02-12T11:58:33;100161.84;;;7.87;59.26
39487;BME280;25173;50.430;18.926;2023-02-12T12:01:34;100156.22;;;7.75;59.43
39487;BME280;25173;50.430;18.926;2023-02-12T12:04:39;100167.88;;;7.56;59.24
39487;BME280;25173;50.430;18.926;2023-02-12T12:07:46;100167.41;;;7.39;59.94
39487;BME280;25173;50.430;18.926;2023-02-12T12:11:10;100172.38;;;7.29;60.56
39487;BME280;25173;50.430;18.926;2023-02-12T12:14:26;100166.16;;;7.41;60.97
39487;BME280;25173;50.430;18.926;2023-02-12T12:17:40;100167.47;;;7.59;60.60
39487;BME280;25173;50.430;18.926;2023-02-12T12:21:29;100169.16;;;7.66;60.35
39487;BME280;25173;50.430;18.926;2023-02-12T12:31:14;100155.94;;;7.44;60.84
39487;BME280;25173;50.430;18.926;2023-02-12T12:34:24;100165.94;;;7.36;60.49
39487;BME280;25173;50.430;18.926;2023-02-12T12:50:52;100157.44;;;7.53;61.38
39487;BME280;25173;50.430;18.926;2023-02-12T12:57:21;100154.09;;;7.51;61.00
39487;BME280;25173;50.430;18.926;2023-02-12T13:07:22;100167.06;;;7.62;61.35
39487;BME280;25173;50.430;18.926;2023-02-12T13:10:39;100155.59;;;7.73;61.03
39487;BME280;25173;50.430;18.926;2023-02-12T13:13:46;100158.34;;;7.93;61.12
39487;BME280;25173;50.430;18.926;2023-02-12T13:17:04;100162.09;;;8.11;60.97
39487;BME280;25173;50.430;18.926;2023-02-12T13:23:13;100161.88;;;8.39;60.28
39487;BME280;25173;50.430;18.926;2023-02-12T13:26:34;100162.06;;;8.64;60.32
39487;BME280;25173;50.430;18.926;2023-02-12T13:29:42;100164.09;;;8.82;60.04
39487;BME280;25173;50.430;18.926;2023-02-12T13:32:54;100154.28;;;8.87;59.33
39487;BME280;25173;50.430;18.926;2023-02-12T13:36:00;100158.41;;;8.90;59.24
39487;BME280;25173;50.430;18.926;2023-02-12T13:42:20;100161.03;;;9.23;59.44
39487;BME280;25173;50.430;18.926;2023-02-12T13:55:31;100167.84;;;9.39;58.30
39487;BME280;25173;50.430;18.926;2023-02-12T14:01:43;100164.25;;;9.45;58.38
39487;BME280;25173;50.430;18.926;2023-02-12T14:07:59;100179.81;;;9.31;57.41
39487;BME280;25173;50.430;18.926;2023-02-12T14:11:08;100166.06;;;9.13;58.03
39487;BME280;25173;50.430;18.926;2023-02-12T14:14:09;100172.19;;;9.02;58.34
39487;BME280;25173;50.430;18.926;2023-02-12T14:20:36;100173.69;;;8.91;59.27
39487;BME280;25173;50.430;18.926;2023-02-12T14:23:38;100172.22;;;8.95;59.02
39487;BME280;25173;50.430;18.926;2023-02-12T14:26:41;100176.59;;;9.03;59.11
39487;BME280;25173;50.430;18.926;2023-02-12T14:33:25;100182.28;;;8.88;57.45
39487;BME280;25173;50.430;18.926;2023-02-12T14:39:33;100187.13;;;8.53;58.58
39487;BME280;25173;50.430;18.926;2023-02-12T14:45:37;100180.66;;;8.61;58.89
39487;BME280;25173;50.430;18.926;2023-02-12T14:48:51;100181.06;;;8.64;58.43
39487;BME280;25173;50.430;18.926;2023-02-12T14:52:03;100182.75;;;8.65;58.64
39487;BME280;25173;50.430;18.926;2023-02-12T14:55:21;100190.88;;;8.72;58.72
39487;BME280;25173;50.430;18.926;2023-02-12T14:58:23;100192.34;;;8.74;58.40
39487;BME280;25173;50.430;18.926;2023-02-12T15:01:33;100193.41;;;8.67;58.49
39487;BME280;25173;50.430;18.926;2023-02-12T15:04:37;100198.84;;;8.67;58.64
39487;BME280;25173;50.430;18.926;2023-02-12T15:11:11;100189.63;;;8.74;58.30
39487;BME280;25173;50.430;18.926;2023-02-12T15:14:30;100187.97;;;8.60;58.18
39487;BME280;25173;50.430;18.926;2023-02-12T15:17:33;100181.50;;;8.54;58.65
39487;BME280;25173;50.430;18.926;2023-02-12T15:20:53;100182.34;;;8.55;58.66
39487;BME280;25173;50.430;18.926;2023-02-12T15:24:03;100193.41;;;8.60;58.59
39487;BME280;25173;50.430;18.926;2023-02-12T15:27:04;100194.03;;;8.62;58.68
39487;BME280;25173;50.430;18.926;2023-02-12T15:30:05;100197.78;;;8.68;58.73
39487;BME280;25173;50.430;18.926;2023-02-12T15:33:06;100199.22;;;8.77;58.50
39487;BME280;25173;50.430;18.926;2023-02-12T15:36:09;100189.16;;;8.84;58.56
39487;BME280;25173;50.430;18.926;2023-02-12T15:39:19;100198.13;;;8.91;58.32
39487;BME280;25173;50.430;18.926;2023-02-12T15:42:29;100185.16;;;9.00;58.11
39487;BME280;25173;50.430;18.926;2023-02-12T15:45:32;100192.66;;;9.04;58.13
39487;BME280;25173;50.430;18.926;2023-02-12T15:48:35;100198.50;;;9.08;58.04
39487;BME280;25173;50.430;18.926;2023-02-12T15:51:38;100195.13;;;9.12;57.77
39487;BME280;25173;50.430;18.926;2023-02-12T15:54:43;100191.16;;;9.15;57.59
39487;BME280;25173;50.430;18.926;2023-02-12T15:57:55;100198.69;;;9.13;57.27
39487;BME280;25173;50.430;18.926;2023-02-12T16:01:04;100199.16;;;9.03;57.38
39487;BME280;25173;50.430;18.926;2023-02-12T16:04:06;100195.88;;;8.88;57.54
39487;BME280;25173;50.430;18.926;2023-02-12T16:07:09;100198.00;;;8.73;57.88
39487;BME280;25173;50.430;18.926;2023-02-12T16:10:17;100184.66;;;8.58;58.02
39487;BME280;25173;50.430;18.926;2023-02-12T16:13:25;100188.81;;;8.47;58.18
39487;BME280;25173;50.430;18.926;2023-02-12T16:23:05;100182.97;;;8.04;58.75
39487;BME280;25173;50.430;18.926;2023-02-12T16:26:06;100181.69;;;7.94;58.94
39487;BME280;25173;50.430;18.926;2023-02-12T16:29:15;100189.44;;;7.90;58.82
39487;BME280;25173;50.430;18.926;2023-02-12T16:35:33;100200.44;;;7.56;58.97
39487;BME280;25173;50.430;18.926;2023-02-12T16:41:54;100205.34;;;7.32;59.40
39487;BME280;25173;50.430;18.926;2023-02-12T16:44:55;100203.22;;;7.28;59.39
39487;BME280;25173;50.430;18.926;2023-02-12T16:50:57;100215.06;;;7.14;59.73
39487;BME280;25173;50.430;18.926;2023-02-12T16:54:00;100220.03;;;7.04;59.77
39487;BME280;25173;50.430;18.926;2023-02-12T16:57:01;100222.69;;;6.97;59.54
39487;BME280;25173;50.430;18.926;2023-02-12T17:00:06;100233.69;;;6.89;59.51
39487;BME280;25173;50.430;18.926;2023-02-12T17:03:12;100228.44;;;6.81;59.71
39487;BME280;25173;50.430;18.926;2023-02-12T17:06:13;100229.22;;;6.75;59.42
39487;BME280;25173;50.430;18.926;2023-02-12T17:09:14;100227.72;;;6.66;59.79
39487;BME280;25173;50.430;18.926;2023-02-12T17:12:14;100240.16;;;6.60;60.04
39487;BME280;25173;50.430;18.926;2023-02-12T17:15:30;100231.78;;;6.55;60.02
39487;BME280;25173;50.430;18.926;2023-02-12T17:18:32;100225.69;;;6.46;60.28
39487;BME280;25173;50.430;18.926;2023-02-12T17:21:37;100216.50;;;6.41;60.50
39487;BME280;25173;50.430;18.926;2023-02-12T17:24:39;100218.97;;;6.36;60.39
39487;BME280;25173;50.430;18.926;2023-02-12T17:27:39;100229.75;;;6.29;60.69
39487;BME280;25173;50.430;18.926;2023-02-12T17:30:40;100229.22;;;6.19;60.78
39487;BME280;25173;50.430;18.926;2023-02-12T17:33:41;100224.59;;;6.13;60.67
39487;BME280;25173;50.430;18.926;2023-02-12T17:36:42;100222.88;;;6.05;61.11
39487;BME280;25173;50.430;18.926;2023-02-12T17:39:42;100224.84;;;5.97;61.19
39487;BME280;25173;50.430;18.926;2023-02-12T17:42:43;100226.91;;;5.95;61.35
39487;BME280;25173;50.430;18.926;2023-02-12T17:45:43;100228.34;;;5.91;61.37
39487;BME280;25173;50.430;18.926;2023-02-12T17:48:44;100223.97;;;5.90;61.43
39487;BME280;25173;50.430;18.926;2023-02-12T17:51:45;100225.31;;;5.85;61.46
39487;BME280;25173;50.430;18.926;2023-02-12T17:54:45;100229.38;;;5.90;61.63
39487;BME280;25173;50.430;18.926;2023-02-12T17:57:50;100225.63;;;5.91;61.33
39487;BME280;25173;50.430;18.926;2023-02-12T18:00:51;100227.84;;;5.87;61.43
39487;BME280;25173;50.430;18.926;2023-02-12T18:03:52;100227.31;;;5.92;61.64
39487;BME280;25173;50.430;18.926;2023-02-12T18:06:55;100226.06;;;5.94;61.39
39487;BME280;25173;50.430;18.926;2023-02-12T18:09:56;100220.22;;;5.91;61.47
39487;BME280;25173;50.430;18.926;2023-02-12T18:12:56;100223.13;;;5.89;61.65
39487;BME280;25173;50.430;18.926;2023-02-12T18:15:57;100217.44;;;5.84;61.59
39487;BME280;25173;50.430;18.926;2023-02-12T18:19:01;100226.09;;;5.79;61.52
39487;BME280;25173;50.430;18.926;2023-02-12T18:22:03;100220.81;;;5.71;61.83
39487;BME280;25173;50.430;18.926;2023-02-12T18:25:04;100223.72;;;5.70;61.41
39487;BME280;25173;50.430;18.926;2023-02-12T18:28:05;100216.47;;;5.70;61.60
39487;BME280;25173;50.430;18.926;2023-02-12T18:31:07;100213.75;;;5.70;61.96
39487;BME280;25173;50.430;18.926;2023-02-12T18:34:08;100211.06;;;5.70;61.98
39487;BME280;25173;50.430;18.926;2023-02-12T18:37:10;100214.19;;;5.74;61.79
39487;BME280;25173;50.430;18.926;2023-02-12T18:40:11;100204.69;;;5.78;61.71